Alsace Manor, Pennsylvania
Current Conditions -  °F | °C
As of 7:54 PM on Saturday 20 Dec 2014 (Local Time) from KRDG Reporting Station
Overcast Overcast  
Wind Chill: 33°   Ceiling: 3200
Heat Index: 33°   Visibility: 10mi
Dew Point: 21°   Wind: 3mph
Humidity: 61%   Direction: 10°N
Pressure: 30.28"   Gusts: NA
Location:  40.4008°N, 75.8851°W
Report Text: KRDG 210054Z AUTO 01003KT 10SM OVC032 01/M06 A3028 RMK AO2 SLP261 T00061061
Loading
Personal Weather Stations






























Interactive Weather Map New forecast layout! Learn more

10-Day Weather Forecast

Advertisements
Track Severe Weather on mobile